Time;durP1;ratioP1;P1;durP2;ratioP2;P2;SDS_P1;SDS_P2;PMS_P1;PMS_P2;Temp;Humidity;BMP_temperature;BMP_pressure;BME280_temperature;BME280_humidity;BME280_pressure;Samples;Min_cycle;Max_cycle;Signal;HPM_P1;HPM_P2
2022/12/26 00:01:48;;;;;;;16.80;3.40;;;;;;;;;;5022578;28;20180;-91
2022/12/26 00:04:14;;;;;;;11.82;3.22;;;;;;;;;;5010131;28;20037;-92
2022/12/26 00:06:39;;;;;;;14.00;3.10;;;;;;;;;;5007093;28;21221;-92
2022/12/26 00:09:05;;;;;;;16.20;2.78;;;;;;;;;;5002792;28;20136;-91
2022/12/26 00:11:31;;;;;;;14.90;3.20;;;;;;;;;;5021377;28;20018;-92
2022/12/26 00:13:57;;;;;;;14.70;2.78;;;;;;;;;;5006613;28;20743;-92
2022/12/26 00:16:23;;;;;;;13.15;2.67;;;;;;;;;;5027894;28;20104;-92
2022/12/26 00:18:48;;;;;;;14.93;2.58;;;;;;;;;;5004804;28;21135;-92
2022/12/26 00:21:15;;;;;;;17.00;2.45;;;;;;;;;;5008823;28;20036;-92
2022/12/26 00:23:40;;;;;;;9.80;2.47;;;;;;;;;;5029705;28;20033;-93
2022/12/26 00:26:08;;;;;;;14.68;3.08;;;;;;;;;;5003880;28;20117;-93
2022/12/26 00:28:33;;;;;;;12.48;2.65;;;;;;;;;;5010407;28;20029;-92
2022/12/26 00:31:02;;;;;;;13.00;2.50;;;;;;;;;;5006658;28;20028;-93
2022/12/26 00:33:27;;;;;;;14.05;2.40;;;;;;;;;;5005138;28;20021;-93
2022/12/26 00:35:53;;;;;;;13.57;2.25;;;;;;;;;;5006075;28;20029;-93
2022/12/26 00:38:19;;;;;;;11.52;2.08;;;;;;;;;;4999369;28;20033;-93
2022/12/26 00:40:45;;;;;;;14.30;2.55;;;;;;;;;;5010659;28;20055;-93
2022/12/26 00:43:10;;;;;;;10.45;1.98;;;;;;;;;;5007860;28;20041;-94
2022/12/26 00:45:36;;;;;;;12.80;2.30;;;;;;;;;;5024231;28;20552;-93
2022/12/26 00:48:05;;;;;;;12.13;2.38;;;;;;;;;;5011556;28;20025;-94
2022/12/26 00:50:30;;;;;;;7.30;2.42;;;;;;;;;;5009699;28;20086;-94
2022/12/26 00:52:57;;;;;;;13.48;2.60;;;;;;;;;;5026194;28;20025;-94
2022/12/26 00:55:22;;;;;;;10.10;1.95;;;;;;;;;;5011008;28;20044;-94
2022/12/26 00:57:48;;;;;;;11.07;2.15;;;;;;;;;;5008720;28;20022;-93
2022/12/26 01:00:14;;;;;;;11.00;2.28;;;;;;;;;;5008569;28;20025;-93
2022/12/26 01:02:39;;;;;;;11.98;1.85;;;;;;;;;;5014732;28;20032;-93
2022/12/26 01:05:08;;;;;;;9.20;2.20;;;;;;;;;;5003969;28;20029;-90
2022/12/26 01:07:37;;;;;;;11.35;2.45;;;;;;;;;;5000404;28;20619;-90
2022/12/26 01:10:04;;;;;;;8.20;1.85;;;;;;;;;;5020711;28;20021;-90
2022/12/26 01:12:30;;;;;;;6.50;1.70;;;;;;;;;;5003878;28;20048;-90
2022/12/26 01:14:56;;;;;;;7.72;1.50;;;;;;;;;;5006007;28;20021;-90
2022/12/26 01:17:21;;;;;;;12.35;1.70;;;;;;;;;;5002299;28;20796;-90
2022/12/26 01:19:46;;;;;;;7.93;1.20;;;;;;;;;;5007402;28;20710;-90
2022/12/26 01:22:11;;;;;;;6.95;1.40;;;;;;;;;;5006901;28;20029;-90
2022/12/26 01:24:37;;;;;;;7.20;1.20;;;;;;;;;;5007020;28;20033;-91
2022/12/26 01:27:02;;;;;;;6.10;1.55;;;;;;;;;;5001316;28;20032;-90
2022/12/26 01:29:27;;;;;;;8.30;1.58;;;;;;;;;;5004597;28;20021;-90
2022/12/26 01:31:53;;;;;;;7.30;1.33;;;;;;;;;;5003603;28;20033;-91
2022/12/26 01:34:18;;;;;;;6.88;1.20;;;;;;;;;;4995281;28;20052;-89
2022/12/26 01:36:44;;;;;;;6.40;1.20;;;;;;;;;;5022708;28;20104;-90
2022/12/26 01:39:09;;;;;;;6.38;1.48;;;;;;;;;;5004405;28;20033;-90
2022/12/26 01:41:35;;;;;;;5.32;1.42;;;;;;;;;;5020093;28;20038;-90
2022/12/26 01:44:05;;;;;;;4.03;1.00;;;;;;;;;;5021198;28;20047;-90
2022/12/26 01:46:37;;;;;;;3.65;0.80;;;;;;;;;;5024598;28;20110;-90
2022/12/26 01:49:08;;;;;;;3.53;0.60;;;;;;;;;;5004209;28;20592;-90
2022/12/26 01:51:39;;;;;;;2.20;0.45;;;;;;;;;;5022786;28;20120;-90
2022/12/26 01:54:06;;;;;;;2.05;0.60;;;;;;;;;;5003016;28;20519;-91
2022/12/26 01:56:36;;;;;;;2.55;0.65;;;;;;;;;;5022929;28;20033;-90
2022/12/26 01:59:04;;;;;;;3.78;0.70;;;;;;;;;;5001045;28;20962;-90
2022/12/26 02:01:32;;;;;;;2.28;0.52;;;;;;;;;;5019454;28;20108;-90
2022/12/26 02:06:42;;;;;;;2.17;0.43;;;;;;;;;;5017671;28;20091;-90
2022/12/26 02:09:08;;;;;;;4.10;0.70;;;;;;;;;;5019523;28;20724;-90
2022/12/26 02:11:42;;;;;;;1.67;0.40;;;;;;;;;;5001430;28;20035;-90
2022/12/26 02:14:08;;;;;;;1.10;0.38;;;;;;;;;;5003610;28;20021;-90
2022/12/26 02:16:34;;;;;;;1.38;0.40;;;;;;;;;;5020595;28;20033;-90
2022/12/26 02:19:00;;;;;;;2.03;0.50;;;;;;;;;;5017688;28;20052;-89
2022/12/26 02:21:31;;;;;;;1.05;0.35;;;;;;;;;;5018221;28;20053;-90
2022/12/26 02:24:12;;;;;;;0.47;0.20;;;;;;;;;;5017178;28;20115;-89
2022/12/26 02:26:52;;;;;;;3.08;0.25;;;;;;;;;;4999875;28;20033;-88
2022/12/26 02:29:30;;;;;;;0.65;0.20;;;;;;;;;;5000376;28;20041;-89
2022/12/26 02:31:55;;;;;;;0.40;0.10;;;;;;;;;;5011831;28;20393;-89
2022/12/26 02:34:26;;;;;;;1.30;0.20;;;;;;;;;;5014539;28;20018;-89
2022/12/26 02:36:57;;;;;;;0.45;0.20;;;;;;;;;;5015266;28;20270;-89
2022/12/26 02:39:41;;;;;;;1.08;0.28;;;;;;;;;;5014995;28;20021;-89
2022/12/26 02:42:12;;;;;;;0.17;0.17;;;;;;;;;;5020410;28;20041;-89
2022/12/26 02:47:44;;;;;;;1.13;0.30;;;;;;;;;;5022062;28;20090;-89
2022/12/26 03:13:11;;;;;;;4.63;0.80;;;;;;;;;;5005187;28;21784;-89
2022/12/26 03:18:31;;;;;;;1.85;0.50;;;;;;;;;;5007785;28;20048;-88
2022/12/26 03:20:58;;;;;;;3.58;0.50;;;;;;;;;;5005319;28;20028;-87
2022/12/26 03:23:23;;;;;;;4.25;0.45;;;;;;;;;;5001766;28;20037;-88
2022/12/26 03:28:38;;;;;;;4.00;0.50;;;;;;;;;;4999808;28;20144;-89
2022/12/26 03:31:06;;;;;;;5.82;1.00;;;;;;;;;;5002765;28;20536;-89
2022/12/26 03:36:16;;;;;;;3.58;0.38;;;;;;;;;;5005757;28;20496;-88
2022/12/26 03:38:57;;;;;;;3.15;0.50;;;;;;;;;;4989806;28;20119;-89
2022/12/26 04:46:25;;;;;;;9.00;0.95;;;;;;;;;;5001681;28;20150;-89
2022/12/26 04:51:36;;;;;;;6.60;1.17;;;;;;;;;;4997628;28;20036;-88
2022/12/26 04:54:01;;;;;;;6.25;0.95;;;;;;;;;;4983961;28;20117;-88
2022/12/26 04:56:26;;;;;;;6.45;0.93;;;;;;;;;;4989597;28;20037;-88
2022/12/26 04:58:52;;;;;;;8.82;1.20;;;;;;;;;;5004068;28;20025;-88
2022/12/26 05:09:35;;;;;;;9.48;0.90;;;;;;;;;;5001968;28;20021;-88
2022/12/26 05:12:01;;;;;;;4.90;0.90;;;;;;;;;;4974503;28;20061;-88
2022/12/26 05:14:27;;;;;;;9.48;1.50;;;;;;;;;;4979674;28;20014;-88
2022/12/26 05:30:45;;;;;;;7.95;1.20;;;;;;;;;;5001789;28;21029;-89
2022/12/26 05:35:54;;;;;;;9.05;1.30;;;;;;;;;;5001768;28;20159;-90
2022/12/26 05:38:20;;;;;;;8.65;1.17;;;;;;;;;;5000546;28;20071;-89
2022/12/26 05:40:45;;;;;;;9.60;1.30;;;;;;;;;;5001217;28;20159;-89
2022/12/26 05:43:10;;;;;;;9.07;1.80;;;;;;;;;;4998254;28;20036;-88
2022/12/26 05:45:36;;;;;;;9.27;0.98;;;;;;;;;;4998832;28;20061;-89
2022/12/26 05:48:01;;;;;;;7.47;1.25;;;;;;;;;;4998807;28;20033;-89
2022/12/26 05:50:27;;;;;;;8.80;1.25;;;;;;;;;;5000525;28;20485;-89
2022/12/26 05:52:52;;;;;;;8.07;1.15;;;;;;;;;;4998780;28;20113;-88
2022/12/26 05:55:18;;;;;;;8.45;0.90;;;;;;;;;;5000736;28;20029;-90
2022/12/26 05:57:43;;;;;;;8.40;0.95;;;;;;;;;;5000040;28;20018;-89
2022/12/26 06:00:12;;;;;;;6.57;1.10;;;;;;;;;;4997674;28;20138;-89
2022/12/26 06:02:37;;;;;;;8.35;0.95;;;;;;;;;;4980576;28;20061;-89
2022/12/26 06:05:02;;;;;;;10.13;1.30;;;;;;;;;;4982096;28;20125;-89
2022/12/26 06:07:27;;;;;;;6.25;0.98;;;;;;;;;;4977626;28;20093;-88
2022/12/26 06:09:53;;;;;;;8.50;1.00;;;;;;;;;;5000782;28;20025;-89
2022/12/26 06:12:18;;;;;;;19.33;1.85;;;;;;;;;;4999139;28;20072;-89
2022/12/26 06:14:43;;;;;;;17.42;1.13;;;;;;;;;;4979030;28;20207;-89
2022/12/26 06:17:09;;;;;;;7.07;1.17;;;;;;;;;;4972530;28;20137;-89
2022/12/26 06:19:34;;;;;;;9.75;1.40;;;;;;;;;;4979720;28;20030;-88
2022/12/26 06:22:00;;;;;;;12.57;1.50;;;;;;;;;;4981388;28;20022;-88
2022/12/26 06:24:25;;;;;;;11.55;2.47;;;;;;;;;;4999175;28;20117;-89
2022/12/26 06:26:52;;;;;;;17.35;4.30;;;;;;;;;;4979682;28;20041;-89
2022/12/26 06:29:17;;;;;;;10.70;2.20;;;;;;;;;;4998858;28;20026;-88
2022/12/26 06:31:42;;;;;;;10.05;1.75;;;;;;;;;;4978585;28;20026;-88
2022/12/26 06:34:09;;;;;;;9.32;1.08;;;;;;;;;;4999591;28;20024;-88
2022/12/26 06:36:35;;;;;;;9.55;1.92;;;;;;;;;;4984855;28;20389;-88
2022/12/26 06:39:00;;;;;;;8.75;1.30;;;;;;;;;;5004308;28;20037;-89
2022/12/26 06:41:25;;;;;;;27.52;1.80;;;;;;;;;;4982051;28;20034;-89
2022/12/26 06:43:51;;;;;;;5.32;0.80;;;;;;;;;;4984161;28;20072;-88
2022/12/26 06:46:18;;;;;;;10.60;1.73;;;;;;;;;;4998914;28;20038;-88
2022/12/26 06:48:43;;;;;;;6.75;0.90;;;;;;;;;;4980620;28;20097;-88
2022/12/26 06:51:12;;;;;;;8.20;1.33;;;;;;;;;;4982042;28;20029;-88
2022/12/26 06:53:38;;;;;;;7.82;1.20;;;;;;;;;;4983643;28;20022;-88
2022/12/26 06:56:04;;;;;;;8.73;1.48;;;;;;;;;;4999251;28;20028;-88
2022/12/26 06:58:30;;;;;;;17.65;3.15;;;;;;;;;;4983247;28;20536;-88
2022/12/26 07:01:02;;;;;;;10.98;4.00;;;;;;;;;;4980334;28;20053;-89
2022/12/26 07:03:28;;;;;;;16.55;3.13;;;;;;;;;;4977997;28;21841;-88
2022/12/26 07:05:53;;;;;;;14.05;3.92;;;;;;;;;;4962341;28;20035;-88
2022/12/26 07:08:18;;;;;;;33.28;5.03;;;;;;;;;;4975371;28;20033;-89
2022/12/26 07:10:43;;;;;;;14.73;4.63;;;;;;;;;;4968060;28;20026;-88
2022/12/26 07:13:09;;;;;;;16.17;4.30;;;;;;;;;;4973086;28;20050;-88
2022/12/26 07:15:34;;;;;;;12.82;3.70;;;;;;;;;;4963695;28;20096;-90
2022/12/26 07:17:59;;;;;;;13.07;3.22;;;;;;;;;;4982875;28;20022;-89
2022/12/26 07:20:25;;;;;;;12.90;3.28;;;;;;;;;;4966025;28;20219;-90
2022/12/26 07:22:50;;;;;;;11.35;3.08;;;;;;;;;;4984063;28;20148;-89
2022/12/26 07:25:16;;;;;;;11.52;3.00;;;;;;;;;;4969132;28;20223;-90
2022/12/26 07:27:41;;;;;;;10.10;2.08;;;;;;;;;;4967512;28;20096;-90
2022/12/26 07:30:07;;;;;;;10.57;1.50;;;;;;;;;;4969161;28;20122;-90
2022/12/26 07:32:32;;;;;;;14.88;1.63;;;;;;;;;;4969534;28;21818;-90
2022/12/26 07:34:57;;;;;;;12.85;2.25;;;;;;;;;;4969392;28;20019;-88
2022/12/26 07:37:29;;;;;;;11.70;1.73;;;;;;;;;;4985156;28;20493;-89
2022/12/26 07:39:54;;;;;;;14.93;1.65;;;;;;;;;;4967305;28;20104;-89
2022/12/26 07:42:19;;;;;;;9.98;2.45;;;;;;;;;;4981850;28;20027;-90
2022/12/26 07:44:45;;;;;;;7.38;1.52;;;;;;;;;;4961610;28;20030;-89
2022/12/26 07:47:10;;;;;;;14.32;1.48;;;;;;;;;;4983132;28;20030;-89
2022/12/26 07:49:35;;;;;;;11.23;1.40;;;;;;;;;;4967054;28;20018;-89
2022/12/26 07:52:01;;;;;;;12.18;1.85;;;;;;;;;;4975730;28;20510;-88
2022/12/26 07:54:28;;;;;;;11.40;1.70;;;;;;;;;;4967157;28;20118;-89
2022/12/26 07:56:54;;;;;;;7.80;1.20;;;;;;;;;;4968112;28;20450;-89
2022/12/26 07:59:20;;;;;;;14.98;1.60;;;;;;;;;;4967411;28;20018;-89
2022/12/26 08:01:45;;;;;;;7.30;1.40;;;;;;;;;;4966989;28;20034;-89
2022/12/26 08:04:11;;;;;;;10.88;1.80;;;;;;;;;;4965042;28;20502;-89
2022/12/26 08:06:36;;;;;;;9.25;2.60;;;;;;;;;;4984573;28;20772;-90
2022/12/26 08:09:02;;;;;;;13.98;1.60;;;;;;;;;;4984838;28;20469;-89
2022/12/26 08:11:30;;;;;;;7.40;1.38;;;;;;;;;;4964959;28;20037;-89
2022/12/26 08:13:56;;;;;;;11.05;2.28;;;;;;;;;;4965792;28;20036;-87
2022/12/26 08:16:22;;;;;;;6.88;1.58;;;;;;;;;;4980597;28;20092;-88
2022/12/26 08:18:47;;;;;;;7.82;1.67;;;;;;;;;;4967025;28;20517;-88
2022/12/26 08:21:12;;;;;;;10.02;1.30;;;;;;;;;;4985688;28;20515;-89
2022/12/26 08:23:38;;;;;;;14.75;2.05;;;;;;;;;;4967220;28;20134;-88
2022/12/26 08:26:19;;;;;;;10.75;1.77;;;;;;;;;;4981431;28;20437;-89
2022/12/26 08:28:44;;;;;;;8.10;1.70;;;;;;;;;;4967032;28;20029;-88
2022/12/26 08:31:12;;;;;;;10.15;1.30;;;;;;;;;;4963568;28;20042;-88
2022/12/26 08:33:38;;;;;;;7.60;1.35;;;;;;;;;;4959712;28;20030;-89
2022/12/26 08:36:04;;;;;;;9.07;1.45;;;;;;;;;;4964899;28;20482;-90
2022/12/26 08:38:29;;;;;;;11.55;1.30;;;;;;;;;;4984444;28;20026;-89
2022/12/26 08:40:55;;;;;;;9.90;1.48;;;;;;;;;;4957876;28;20541;-89
2022/12/26 08:43:22;;;;;;;7.47;1.00;;;;;;;;;;4965115;28;20034;-90
2022/12/26 08:45:55;;;;;;;8.82;1.52;;;;;;;;;;4983632;28;20025;-89
2022/12/26 08:48:20;;;;;;;8.55;1.45;;;;;;;;;;4959582;28;20038;-90
2022/12/26 08:50:46;;;;;;;7.15;1.00;;;;;;;;;;4965345;28;20038;-89
2022/12/26 08:53:11;;;;;;;9.07;1.20;;;;;;;;;;4980933;28;20026;-90
2022/12/26 08:55:36;;;;;;;9.73;1.42;;;;;;;;;;4984745;28;20038;-90
2022/12/26 08:58:01;;;;;;;9.57;1.52;;;;;;;;;;4969270;28;20512;-89
2022/12/26 09:00:27;;;;;;;9.18;1.55;;;;;;;;;;4974609;28;20618;-89
2022/12/26 09:02:52;;;;;;;7.82;1.00;;;;;;;;;;4971792;28;20114;-89
2022/12/26 09:05:17;;;;;;;10.75;1.15;;;;;;;;;;4967524;28;20050;-88
2022/12/26 09:07:43;;;;;;;8.30;1.15;;;;;;;;;;4981661;28;20027;-89
2022/12/26 09:10:11;;;;;;;8.38;2.13;;;;;;;;;;4966430;28;20030;-91
2022/12/26 09:12:36;;;;;;;4.95;1.23;;;;;;;;;;4984238;28;20018;-89
2022/12/26 09:15:01;;;;;;;6.93;1.00;;;;;;;;;;4984939;28;20594;-89
2022/12/26 09:17:27;;;;;;;7.78;1.20;;;;;;;;;;4983839;28;20031;-88
2022/12/26 09:19:52;;;;;;;5.93;1.05;;;;;;;;;;4985192;28;20559;-89
2022/12/26 09:25:05;;;;;;;6.28;1.02;;;;;;;;;;4984936;28;20040;-91
2022/12/26 09:27:30;;;;;;;5.70;0.93;;;;;;;;;;4982068;28;20073;-89
2022/12/26 09:29:55;;;;;;;6.15;1.10;;;;;;;;;;4983080;28;20490;-89
2022/12/26 09:32:20;;;;;;;5.55;0.88;;;;;;;;;;4967165;28;20028;-89
2022/12/26 09:34:47;;;;;;;6.60;1.35;;;;;;;;;;4968634;28;20389;-89
2022/12/26 09:37:12;;;;;;;5.90;0.90;;;;;;;;;;4989103;28;20034;-89
2022/12/26 09:39:38;;;;;;;9.48;1.30;;;;;;;;;;4968468;28;20291;-89
2022/12/26 09:42:11;;;;;;;7.15;1.05;;;;;;;;;;4982442;28;20035;-88
2022/12/26 09:44:36;;;;;;;;;;;;;;;;;;4969762;28;20026;-89
2022/12/26 09:47:14;;;;;;;4.88;0.82;;;;;;;;;;4985285;28;19925;-89
2022/12/26 09:49:45;;;;;;;7.78;1.30;;;;;;;;;;4984889;28;20025;-89
2022/12/26 09:52:14;;;;;;;5.70;0.80;;;;;;;;;;4984239;28;20588;-89
2022/12/26 09:54:41;;;;;;;9.98;1.20;;;;;;;;;;4967960;28;20027;-90
2022/12/26 09:57:18;;;;;;;7.70;0.95;;;;;;;;;;4972724;28;20127;-90
2022/12/26 09:59:49;;;;;;;6.47;1.10;;;;;;;;;;4984612;28;20026;-90
2022/12/26 10:02:19;;;;;;;8.07;1.30;;;;;;;;;;4968186;28;20383;-88
2022/12/26 10:04:44;;;;;;;5.30;1.10;;;;;;;;;;4987795;28;20062;-89
2022/12/26 10:07:09;;;;;;;7.50;1.30;;;;;;;;;;4965172;28;20617;-91
2022/12/26 10:09:35;;;;;;;6.75;0.93;;;;;;;;;;4985009;28;20029;-90
2022/12/26 10:12:15;;;;;;;8.07;0.90;;;;;;;;;;4987403;28;20095;-88
2022/12/26 10:14:40;;;;;;;8.02;0.98;;;;;;;;;;4967654;28;20033;-89
2022/12/26 10:17:09;;;;;;;4.13;0.93;;;;;;;;;;4965457;28;20019;-89
2022/12/26 10:19:51;;;;;;;8.98;1.70;;;;;;;;;;4967716;28;20026;-92
2022/12/26 10:22:16;;;;;;;8.90;1.27;;;;;;;;;;4977386;28;20034;-89
2022/12/26 10:24:42;;;;;;;5.22;0.95;;;;;;;;;;4967504;28;20026;-89
2022/12/26 10:27:15;;;;;;;5.65;1.33;;;;;;;;;;4962911;28;20034;-89
2022/12/26 10:29:46;;;;;;;5.07;0.93;;;;;;;;;;4984372;28;20355;-89
2022/12/26 10:32:14;;;;;;;6.90;0.80;;;;;;;;;;4967658;28;20030;-89
2022/12/26 10:34:41;;;;;;;7.18;1.00;;;;;;;;;;4961342;28;20022;-89
2022/12/26 10:37:17;;;;;;;7.20;1.10;;;;;;;;;;4967299;28;20056;-89
2022/12/26 10:39:46;;;;;;;8.15;1.08;;;;;;;;;;4980483;28;20105;-89
2022/12/26 10:42:34;;;;;;;8.82;1.23;;;;;;;;;;4984954;28;20027;-89
2022/12/26 10:45:00;;;;;;;4.75;0.68;;;;;;;;;;4986442;28;20109;-90
2022/12/26 10:47:46;;;;;;;4.05;0.60;;;;;;;;;;4985509;28;20676;-90
2022/12/26 10:50:16;;;;;;;5.95;0.90;;;;;;;;;;4983138;28;20041;-90
2022/12/26 10:52:41;;;;;;;8.07;1.10;;;;;;;;;;4967008;28;20378;-91
2022/12/26 10:55:12;;;;;;;4.70;0.80;;;;;;;;;;4967677;28;20029;-90
2022/12/26 10:57:40;;;;;;;7.13;1.05;;;;;;;;;;4982554;28;20031;-89
2022/12/26 11:00:20;;;;;;;5.10;0.75;;;;;;;;;;4966627;28;20125;-90
2022/12/26 11:03:00;;;;;;;5.55;0.88;;;;;;;;;;4982764;28;20026;-90
2022/12/26 11:05:25;;;;;;;6.32;1.05;;;;;;;;;;4963744;28;20058;-89
2022/12/26 11:07:53;;;;;;;7.93;1.17;;;;;;;;;;4982070;28;20017;-89
2022/12/26 11:10:20;;;;;;;6.75;1.10;;;;;;;;;;4960484;28;20077;-89
2022/12/26 11:12:55;;;;;;;5.85;0.95;;;;;;;;;;4978442;28;20037;-90
2022/12/26 11:15:27;;;;;;;7.80;1.00;;;;;;;;;;4959305;28;20509;-90
2022/12/26 11:18:06;;;;;;;6.78;1.08;;;;;;;;;;4957368;28;20059;-89
2022/12/26 11:20:31;;;;;;;6.45;1.00;;;;;;;;;;4957809;28;20026;-90
2022/12/26 11:23:12;;;;;;;6.53;0.80;;;;;;;;;;4976326;28;20034;-91
2022/12/26 11:25:46;;;;;;;5.93;0.93;;;;;;;;;;4982022;28;20022;-89
2022/12/26 11:28:19;;;;;;;5.97;1.05;;;;;;;;;;4985742;28;20062;-89
2022/12/26 11:30:45;;;;;;;;;;;;;;;;;;4981930;28;20074;-89
2022/12/26 11:33:24;;;;;;;6.50;1.10;;;;;;;;;;4975661;28;20329;-90
2022/12/26 11:35:52;;;;;;;5.35;0.88;;;;;;;;;;4979259;28;20279;-88
2022/12/26 11:38:34;;;;;;;4.28;0.88;;;;;;;;;;4966999;28;20030;-88
2022/12/26 11:43:44;;;;;;;5.60;1.00;;;;;;;;;;4979825;28;20085;-89
2022/12/26 11:46:10;;;;;;;5.95;0.90;;;;;;;;;;4968925;28;20026;-90
2022/12/26 11:48:35;;;;;;;5.50;0.98;;;;;;;;;;4972705;28;20034;-89
2022/12/26 11:51:01;;;;;;;24.10;1.95;;;;;;;;;;4981099;28;20031;-90
2022/12/26 11:53:26;;;;;;;5.57;1.08;;;;;;;;;;4968705;28;20022;-89
2022/12/26 11:55:59;;;;;;;8.45;1.05;;;;;;;;;;4992179;28;20053;-91
2022/12/26 11:58:28;;;;;;;7.35;0.95;;;;;;;;;;4975509;28;20034;-90
2022/12/26 12:00:59;;;;;;;8.27;1.17;;;;;;;;;;4988506;28;20436;-90
2022/12/26 12:03:34;;;;;;;6.20;0.82;;;;;;;;;;4966471;28;20580;-91
2022/12/26 12:05:59;;;;;;;8.88;1.00;;;;;;;;;;4972811;28;20053;-91
2022/12/26 12:08:30;;;;;;;5.73;0.90;;;;;;;;;;4974941;28;21559;-89
2022/12/26 12:11:21;;;;;;;7.40;1.08;;;;;;;;;;4972646;28;20338;-90
2022/12/26 12:13:52;;;;;;;7.57;1.05;;;;;;;;;;4966161;28;20042;-90
2022/12/26 12:16:26;;;;;;;3.33;0.80;;;;;;;;;;4964659;28;20030;-89
2022/12/26 12:18:52;;;;;;;4.43;0.80;;;;;;;;;;4977061;28;20466;-90
2022/12/26 12:21:36;;;;;;;9.95;1.17;;;;;;;;;;4965153;28;20045;-90
2022/12/26 12:24:07;;;;;;;6.65;0.73;;;;;;;;;;4963193;28;20045;-90
2022/12/26 12:26:36;;;;;;;9.43;0.98;;;;;;;;;;4983266;28;20034;-90
2022/12/26 12:29:18;;;;;;;4.75;0.93;;;;;;;;;;4983999;28;20022;-92
2022/12/26 12:31:43;;;;;;;6.80;1.00;;;;;;;;;;4973651;28;20027;-93
2022/12/26 12:34:24;;;;;;;3.58;0.70;;;;;;;;;;4970333;28;20079;-90
2022/12/26 12:37:18;;;;;;;8.98;0.95;;;;;;;;;;4975053;28;20109;-90
2022/12/26 12:39:43;;;;;;;6.35;0.90;;;;;;;;;;4967012;28;20034;-90
2022/12/26 12:42:09;;;;;;;7.90;1.00;;;;;;;;;;4995599;28;21611;-89
2022/12/26 12:44:34;;;;;;;3.25;0.60;;;;;;;;;;4986324;28;20367;-90
2022/12/26 12:47:09;;;;;;;9.70;1.15;;;;;;;;;;4980331;28;20390;-91
2022/12/26 12:53:02;;;;;;;5.72;0.98;;;;;;;;;;4978123;28;20037;-90
2022/12/26 12:55:36;;;;;;;3.85;0.80;;;;;;;;;;4993535;28;20030;-90
2022/12/26 12:58:22;;;;;;;4.82;0.60;;;;;;;;;;4969597;28;20054;-91
2022/12/26 13:00:51;;;;;;;5.30;0.80;;;;;;;;;;4916712;29;20487;-90
2022/12/26 13:03:28;;;;;;;6.32;1.15;;;;;;;;;;4910920;28;20047;-90
2022/12/26 13:05:53;;;;;;;5.93;0.82;;;;;;;;;;4946543;28;20158;-89
2022/12/26 13:08:25;;;;;;;7.63;1.25;;;;;;;;;;4946444;28;20974;-90
2022/12/26 13:11:18;;;;;;;4.50;0.52;;;;;;;;;;4957066;28;20030;-91
2022/12/26 13:13:48;;;;;;;5.93;0.70;;;;;;;;;;4954788;28;20035;-88
2022/12/26 13:16:15;;;;;;;7.00;1.00;;;;;;;;;;4935417;28;20123;-89
2022/12/26 13:19:00;;;;;;;4.82;1.00;;;;;;;;;;4929021;28;20039;-90
2022/12/26 13:21:27;;;;;;;3.80;0.70;;;;;;;;;;4949834;28;20031;-89
2022/12/26 13:24:23;;;;;;;4.90;0.90;;;;;;;;;;4946704;28;20198;-89
2022/12/26 13:27:10;;;;;;;8.35;1.23;;;;;;;;;;4949816;28;20031;-90
2022/12/26 13:29:38;;;;;;;8.30;1.00;;;;;;;;;;4950178;28;20041;-89
2022/12/26 13:32:12;;;;;;;4.35;0.73;;;;;;;;;;4934367;28;20091;-90
2022/12/26 13:34:42;;;;;;;3.28;0.80;;;;;;;;;;4933583;28;20077;-91
2022/12/26 13:37:28;;;;;;;7.45;1.08;;;;;;;;;;4928107;28;20038;-90
2022/12/26 13:40:02;;;;;;;8.95;1.00;;;;;;;;;;4980800;28;20026;-92
2022/12/26 13:45:55;;;;;;;4.40;0.90;;;;;;;;;;5008315;28;20440;-92
2022/12/26 13:48:31;;;;;;;5.32;0.90;;;;;;;;;;4985663;28;20169;-94
2022/12/26 13:51:10;;;;;;;7.85;1.00;;;;;;;;;;4992796;28;20612;-93
2022/12/26 13:53:42;;;;;;;3.92;0.80;;;;;;;;;;4988980;28;20088;-93
2022/12/26 13:56:30;;;;;;;;;;;;;;;;;;;;;
2022/12/26 13:59:29;;;;;;;5.00;0.80;;;;;;;;;;5002287;28;20030;-92
2022/12/26 14:02:25;;;;;;;4.90;0.77;;;;;;;;;;5007139;28;20049;-93
2022/12/26 14:05:14;;;;;;;4.53;0.80;;;;;;;;;;5002044;28;20045;-93
2022/12/26 14:07:57;;;;;;;;;;;;;;;;;;;;;
2022/12/26 14:11:00;;;;;;;4.90;0.98;;;;;;;;;;5009512;28;20038;-93
2022/12/26 14:13:37;;;;;;;4.68;0.77;;;;;;;;;;4991412;28;20045;-94
2022/12/26 14:16:12;;;;;;;4.57;0.85;;;;;;;;;;4992603;28;20034;-92
2022/12/26 14:18:54;;;;;;;9.25;1.30;;;;;;;;;;5016655;28;20119;-94
2022/12/26 14:21:35;;;;;;;5.90;1.00;;;;;;;;;;5020317;28;20029;-93
2022/12/26 14:24:19;;;;;;;8.35;0.82;;;;;;;;;;4991578;28;20026;-93
2022/12/26 14:26:57;;;;;;;4.78;1.00;;;;;;;;;;4995563;28;20025;-93
2022/12/26 14:29:23;;;;;;;6.70;1.20;;;;;;;;;;5006409;28;20085;-94
2022/12/26 14:32:03;;;;;;;7.80;1.15;;;;;;;;;;5005542;28;20095;-93
2022/12/26 14:34:48;;;;;;;3.67;0.75;;;;;;;;;;4993308;28;20816;-93
2022/12/26 14:37:35;;;;;;;6.80;1.17;;;;;;;;;;5009647;28;20045;-95
2022/12/26 14:40:08;;;;;;;6.18;1.13;;;;;;;;;;4990417;28;20038;-91
2022/12/26 14:43:14;;;;;;;5.78;0.85;;;;;;;;;;4989400;28;20512;-94
2022/12/26 14:48:27;;;;;;;4.30;1.20;;;;;;;;;;5000294;28;20029;-94
2022/12/26 14:51:12;;;;;;;7.30;0.93;;;;;;;;;;4990769;28;20092;-92
2022/12/26 14:53:38;;;;;;;5.35;0.88;;;;;;;;;;4979047;28;20062;-93
2022/12/26 14:56:19;;;;;;;8.23;1.20;;;;;;;;;;4987635;28;20058;-93
2022/12/26 14:58:50;;;;;;;3.63;0.90;;;;;;;;;;4992350;28;20040;-92
2022/12/26 15:01:19;;;;;;;11.70;1.60;;;;;;;;;;4992713;28;20305;-93
2022/12/26 15:03:52;;;;;;;6.40;1.10;;;;;;;;;;4988502;28;20824;-93
2022/12/26 15:06:17;;;;;;;5.57;0.85;;;;;;;;;;4989600;28;20053;-90
2022/12/26 15:08:46;;;;;;;3.10;0.60;;;;;;;;;;5000930;28;20061;-93
2022/12/26 15:11:11;;;;;;;4.95;0.98;;;;;;;;;;4989638;28;20030;-93
2022/12/26 15:13:55;;;;;;;6.78;1.02;;;;;;;;;;5006266;28;20025;-93
2022/12/26 15:16:20;;;;;;;;;;;;;;;;;;4989527;28;20030;-93
2022/12/26 15:18:48;;;;;;;7.35;0.98;;;;;;;;;;4985114;28;19924;-93
2022/12/26 15:21:16;;;;;;;7.00;1.17;;;;;;;;;;4989194;28;20125;-92
2022/12/26 15:24:04;;;;;;;12.38;1.50;;;;;;;;;;4989170;28;20121;-95
2022/12/26 15:26:53;;;;;;;7.72;1.08;;;;;;;;;;5009053;28;20022;-93
2022/12/26 15:29:38;;;;;;;8.25;1.38;;;;;;;;;;5012283;28;20034;-94
2022/12/26 15:32:30;;;;;;;8.63;1.38;;;;;;;;;;5010782;28;20022;-92
2022/12/26 15:35:16;;;;;;;5.43;0.88;;;;;;;;;;4991996;28;20026;-93
2022/12/26 15:38:06;;;;;;;7.55;1.63;;;;;;;;;;4992636;28;20145;-92
2022/12/26 15:40:36;;;;;;;10.80;1.27;;;;;;;;;;4990175;28;20022;-94
2022/12/26 15:43:20;;;;;;;4.97;0.90;;;;;;;;;;4991599;28;20026;-92
2022/12/26 15:45:55;;;;;;;6.80;1.10;;;;;;;;;;4993437;28;20037;-93
2022/12/26 15:48:36;;;;;;;4.50;0.90;;;;;;;;;;4993137;28;20037;-92
2022/12/26 15:51:36;;;;;;;8.07;1.30;;;;;;;;;;4991774;28;22038;-92
2022/12/26 15:54:34;;;;;;;7.65;1.27;;;;;;;;;;4967325;28;20044;-93
2022/12/26 15:57:15;;;;;;;8.55;1.30;;;;;;;;;;4947938;28;20051;-93
2022/12/26 16:00:06;;;;;;;7.03;1.00;;;;;;;;;;4946391;28;20034;-92
2022/12/26 16:02:33;;;;;;;4.97;0.93;;;;;;;;;;4945895;28;20127;-91
2022/12/26 16:05:24;;;;;;;4.38;0.82;;;;;;;;;;4968414;28;20051;-93
2022/12/26 16:07:52;;;;;;;7.10;1.00;;;;;;;;;;4950178;28;20556;-93
2022/12/26 16:10:24;;;;;;;6.88;0.95;;;;;;;;;;4951727;28;21210;-93
2022/12/26 16:13:13;;;;;;;8.15;0.90;;;;;;;;;;4962991;28;20023;-93
2022/12/26 16:15:51;;;;;;;5.88;1.08;;;;;;;;;;4965762;28;20031;-92
2022/12/26 16:18:27;;;;;;;11.43;1.30;;;;;;;;;;4951157;28;20030;-92
2022/12/26 16:23:41;;;;;;;10.15;1.08;;;;;;;;;;4957845;28;20041;-93
2022/12/26 16:26:15;;;;;;;8.45;1.15;;;;;;;;;;4948094;28;20045;-94
2022/12/26 16:28:42;;;;;;;;;;;;;;;;;;4951138;28;20057;-93
2022/12/26 16:31:09;;;;;;;7.18;1.10;;;;;;;;;;4952371;28;19921;-93
2022/12/26 16:33:42;;;;;;;6.18;1.02;;;;;;;;;;4978695;28;20046;-93
2022/12/26 16:36:08;;;;;;;6.28;0.90;;;;;;;;;;4995900;28;20034;-93
2022/12/26 16:38:34;;;;;;;5.85;1.15;;;;;;;;;;5007790;28;20029;-93
2022/12/26 16:41:01;;;;;;;8.77;2.05;;;;;;;;;;4999990;28;20644;-92
2022/12/26 16:43:28;;;;;;;9.25;1.08;;;;;;;;;;5004383;28;20441;-92
2022/12/26 16:46:13;;;;;;;8.88;1.30;;;;;;;;;;4995985;28;20117;-93
2022/12/26 16:48:39;;;;;;;5.32;1.08;;;;;;;;;;4991273;28;20056;-92
2022/12/26 16:51:07;;;;;;;8.98;1.20;;;;;;;;;;4995281;28;20022;-93
2022/12/26 16:53:35;;;;;;;5.22;1.17;;;;;;;;;;5002601;28;20030;-92
2022/12/26 16:56:21;;;;;;;4.90;1.08;;;;;;;;;;5010186;28;20029;-91
2022/12/26 16:58:54;;;;;;;8.25;1.33;;;;;;;;;;5005329;28;20100;-91
2022/12/26 17:01:20;;;;;;;5.35;1.15;;;;;;;;;;4986608;28;20040;-91
2022/12/26 17:03:57;;;;;;;6.47;1.10;;;;;;;;;;4988690;28;20700;-92
2022/12/26 17:06:24;;;;;;;8.52;1.30;;;;;;;;;;5008382;28;20028;-91
2022/12/26 17:08:50;;;;;;;7.55;1.15;;;;;;;;;;4991060;28;20107;-92
2022/12/26 17:11:16;;;;;;;4.97;0.80;;;;;;;;;;4991566;28;20033;-92
2022/12/26 17:13:47;;;;;;;5.75;0.90;;;;;;;;;;4993450;28;20022;-91
2022/12/26 17:16:13;;;;;;;6.80;1.55;;;;;;;;;;5006520;28;20041;-91
2022/12/26 17:18:45;;;;;;;11.93;1.25;;;;;;;;;;4986270;28;20030;-90
2022/12/26 17:21:15;;;;;;;6.47;1.07;;;;;;;;;;5002541;28;20044;-91
2022/12/26 17:23:41;;;;;;;11.25;0.98;;;;;;;;;;5004920;28;20037;-92
2022/12/26 17:26:18;;;;;;;5.82;0.90;;;;;;;;;;5001890;28;20025;-92
2022/12/26 17:28:43;;;;;;;9.30;1.05;;;;;;;;;;4987630;28;20021;-92
2022/12/26 17:31:17;;;;;;;7.60;1.30;;;;;;;;;;4987610;28;20042;-91